createdAt,value
2022-11-22T00:00:13.358Z,80.90
2022-11-22T00:01:13.286Z,80.80
2022-11-22T00:02:13.505Z,80.70
2022-11-22T00:03:13.429Z,80.70
2022-11-22T00:04:13.434Z,80.40
2022-11-22T00:05:13.738Z,80.90
2022-11-22T00:06:13.685Z,80.70
2022-11-22T00:07:13.788Z,80.40
2022-11-22T00:08:14.186Z,80.40
2022-11-22T00:09:13.540Z,80.30
2022-11-22T00:10:13.658Z,80.20
2022-11-22T00:11:14.723Z,80.20
2022-11-22T00:12:13.647Z,79.80
2022-11-22T00:13:13.523Z,80.20
2022-11-22T00:14:13.843Z,80.00
2022-11-22T00:15:13.997Z,79.90
2022-11-22T00:16:13.975Z,80.10
2022-11-22T00:17:12.814Z,80.00
2022-11-22T00:18:13.895Z,79.40
2022-11-22T00:19:12.796Z,79.80
2022-11-22T00:20:13.709Z,80.00
2022-11-22T00:21:14.140Z,79.60
2022-11-22T00:22:13.250Z,79.80
2022-11-22T00:23:13.255Z,79.40
2022-11-22T00:24:13.160Z,78.70
2022-11-22T00:25:12.991Z,78.90
2022-11-22T00:26:13.042Z,78.80
2022-11-22T00:27:12.928Z,78.50
2022-11-22T00:28:13.424Z,78.60
2022-11-22T00:29:13.320Z,78.70
2022-11-22T00:30:13.310Z,79.10
2022-11-22T00:31:13.493Z,79.30
2022-11-22T00:32:13.800Z,78.70
2022-11-22T00:33:14.198Z,79.00
2022-11-22T00:34:13.622Z,79.30
2022-11-22T00:35:13.662Z,79.00
2022-11-22T00:36:13.698Z,79.00
2022-11-22T00:37:14.149Z,79.50
2022-11-22T00:38:13.329Z,79.70
2022-11-22T00:39:13.592Z,79.40
2022-11-22T00:40:13.627Z,79.80
2022-11-22T00:41:13.777Z,79.40
2022-11-22T00:42:14.024Z,79.10
2022-11-22T00:43:13.252Z,79.30
2022-11-22T00:44:13.357Z,79.20
2022-11-22T00:45:13.280Z,79.60
2022-11-22T00:46:13.535Z,79.30
2022-11-22T00:47:13.698Z,79.00
2022-11-22T00:48:13.617Z,78.60
2022-11-22T00:49:13.494Z,79.10
2022-11-22T00:50:13.597Z,78.70
2022-11-22T00:51:13.706Z,79.30
2022-11-22T00:52:13.535Z,79.20
2022-11-22T00:53:13.751Z,79.50
2022-11-22T00:54:13.783Z,79.30
2022-11-22T00:55:13.702Z,79.40
2022-11-22T00:56:13.657Z,79.00
2022-11-22T00:57:13.716Z,79.50
2022-11-22T00:58:13.758Z,79.00
2022-11-22T00:59:14.050Z,79.10
2022-11-22T01:00:13.155Z,79.40
2022-11-22T01:01:14.566Z,78.90
2022-11-22T01:02:13.550Z,79.00
2022-11-22T01:03:13.602Z,78.80
2022-11-22T01:04:13.433Z,78.10
2022-11-22T01:05:13.333Z,78.50
2022-11-22T01:06:13.229Z,78.80
2022-11-22T01:07:13.375Z,78.60
2022-11-22T01:08:13.384Z,78.00
2022-11-22T01:09:13.253Z,78.30
2022-11-22T01:10:13.326Z,78.60
2022-11-22T01:11:13.507Z,78.30
2022-11-22T01:12:13.658Z,78.40
2022-11-22T01:13:13.702Z,78.90
2022-11-22T01:14:13.831Z,78.90
2022-11-22T01:15:13.672Z,78.40
2022-11-22T01:16:13.531Z,79.20
2022-11-22T01:17:13.460Z,79.30
2022-11-22T01:18:13.444Z,79.60
2022-11-22T01:19:13.585Z,80.30
2022-11-22T01:20:14.136Z,79.50
2022-11-22T01:21:13.078Z,79.60
2022-11-22T01:22:13.005Z,79.30
2022-11-22T01:23:13.083Z,79.60
2022-11-22T01:24:13.071Z,79.50
2022-11-22T01:25:12.960Z,79.40
2022-11-22T01:26:13.069Z,79.70
2022-11-22T01:27:13.478Z,80.20
2022-11-22T01:28:13.596Z,80.40
2022-11-22T01:29:13.921Z,80.50
2022-11-22T01:30:13.080Z,80.30
2022-11-22T01:31:12.965Z,80.30
2022-11-22T01:32:12.987Z,80.50
2022-11-22T01:33:12.984Z,80.70
2022-11-22T01:34:12.978Z,80.80
2022-11-22T01:35:13.053Z,81.10
2022-11-22T01:36:17.987Z,81.00
2022-11-22T01:37:13.039Z,81.50
2022-11-22T01:38:12.943Z,82.70
2022-11-22T01:39:13.276Z,83.60
2022-11-22T01:40:13.604Z,84.10
2022-11-22T01:41:13.609Z,85.00
2022-11-22T01:42:13.554Z,85.50
2022-11-22T01:43:13.418Z,86.20
2022-11-22T01:44:13.536Z,86.30
2022-11-22T01:45:13.514Z,86.50
2022-11-22T01:46:13.458Z,86.80
2022-11-22T01:47:13.372Z,86.80
2022-11-22T01:48:13.480Z,86.90
2022-11-22T01:49:13.418Z,86.80
2022-11-22T01:50:13.337Z,86.80
2022-11-22T01:51:13.403Z,86.70
2022-11-22T01:52:13.672Z,86.60
2022-11-22T01:53:13.589Z,86.60
2022-11-22T01:54:13.814Z,86.90
2022-11-22T01:55:13.719Z,87.20
2022-11-22T01:56:13.590Z,87.20
2022-11-22T01:57:13.466Z,87.20
2022-11-22T01:58:13.691Z,87.50
2022-11-22T01:59:19.573Z,87.70
2022-11-22T02:00:13.448Z,87.70
2022-11-22T02:01:13.655Z,87.50
2022-11-22T02:02:13.694Z,87.20
2022-11-22T02:03:19.016Z,86.90
2022-11-22T02:04:13.044Z,87.20
2022-11-22T02:05:12.929Z,87.60
2022-11-22T02:06:13.356Z,87.60
2022-11-22T02:07:13.451Z,87.40
2022-11-22T02:08:13.679Z,87.40
2022-11-22T02:09:14.042Z,87.70
2022-11-22T02:10:12.919Z,87.20
2022-11-22T02:11:13.175Z,87.00
2022-11-22T02:12:13.454Z,87.30
2022-11-22T02:13:13.329Z,87.30
2022-11-22T02:14:13.577Z,87.50
2022-11-22T02:15:13.439Z,87.60
2022-11-22T02:16:13.373Z,87.50
2022-11-22T02:17:13.332Z,87.50
2022-11-22T02:18:13.369Z,87.60
2022-11-22T02:19:13.440Z,87.30
2022-11-22T02:20:13.337Z,86.60
2022-11-22T02:21:13.403Z,86.30
2022-11-22T02:22:13.500Z,86.40
2022-11-22T02:23:13.703Z,86.30
2022-11-22T02:24:14.178Z,86.50
2022-11-22T02:25:13.042Z,86.70
2022-11-22T02:26:13.114Z,86.50
2022-11-22T02:27:13.122Z,86.20
2022-11-22T02:28:13.477Z,85.60
2022-11-22T02:29:13.734Z,85.30
2022-11-22T02:30:13.645Z,85.40
2022-11-22T02:31:13.517Z,85.40
2022-11-22T02:32:13.321Z,85.80
2022-11-22T02:33:13.350Z,85.40
2022-11-22T02:34:13.543Z,85.40
2022-11-22T02:35:13.687Z,84.90
2022-11-22T02:36:13.941Z,85.20
2022-11-22T02:37:12.950Z,85.30
2022-11-22T02:38:12.844Z,85.30
2022-11-22T02:39:13.749Z,85.60
2022-11-22T02:40:13.699Z,85.40
2022-11-22T02:41:13.914Z,85.30
2022-11-22T02:42:12.998Z,85.40
2022-11-22T02:43:12.937Z,85.60
2022-11-22T02:44:13.036Z,85.30
2022-11-22T02:45:13.160Z,84.60
2022-11-22T02:46:13.090Z,84.90
2022-11-22T02:47:13.265Z,85.00
2022-11-22T02:48:13.161Z,85.00
2022-11-22T02:49:13.503Z,84.40
2022-11-22T02:50:13.514Z,84.20
2022-11-22T02:51:13.461Z,84.50
2022-11-22T02:52:13.642Z,84.30
2022-11-22T02:53:13.560Z,84.60
2022-11-22T02:54:13.722Z,84.70
2022-11-22T02:55:13.821Z,84.80
2022-11-22T02:56:13.906Z,84.30
2022-11-22T02:57:13.221Z,84.50
2022-11-22T02:58:13.464Z,84.30
2022-11-22T02:59:13.263Z,84.90
2022-11-22T03:00:13.187Z,84.90
2022-11-22T03:01:13.133Z,85.20
2022-11-22T03:02:13.086Z,85.20
2022-11-22T03:03:13.154Z,85.20
2022-11-22T03:04:13.489Z,84.60
2022-11-22T03:05:18.714Z,84.20
2022-11-22T03:06:13.739Z,84.50
2022-11-22T03:07:13.618Z,85.00
2022-11-22T03:08:13.902Z,84.80
2022-11-22T03:09:12.702Z,84.80
2022-11-22T03:10:13.649Z,84.70
2022-11-22T03:11:13.553Z,84.80
2022-11-22T03:12:13.474Z,84.40
2022-11-22T03:13:13.387Z,84.70
2022-11-22T03:14:13.294Z,84.40
2022-11-22T03:15:13.195Z,84.90
2022-11-22T03:16:13.411Z,85.40
2022-11-22T03:17:13.584Z,85.50
2022-11-22T03:18:13.668Z,85.10
2022-11-22T03:19:13.888Z,85.20
2022-11-22T03:20:12.793Z,85.50
2022-11-22T03:21:13.838Z,85.60
2022-11-22T03:22:13.743Z,85.10
2022-11-22T03:23:13.749Z,85.10
2022-11-22T03:24:13.836Z,85.70
2022-11-22T03:25:13.792Z,85.90
2022-11-22T03:26:13.869Z,85.50
2022-11-22T03:27:14.254Z,85.50
2022-11-22T03:28:13.501Z,85.70
2022-11-22T03:29:13.489Z,85.80
2022-11-22T03:30:13.524Z,85.40
2022-11-22T03:31:13.684Z,85.40
2022-11-22T03:32:13.863Z,85.00
2022-11-22T03:33:13.922Z,84.50
2022-11-22T03:34:13.069Z,84.40
2022-11-22T03:35:12.975Z,84.80
2022-11-22T03:36:12.981Z,85.30
2022-11-22T03:37:13.127Z,85.10
2022-11-22T03:38:12.953Z,84.80
2022-11-22T03:39:12.945Z,84.70
2022-11-22T03:40:12.926Z,85.10
2022-11-22T03:41:13.236Z,85.20
2022-11-22T03:42:16.817Z,85.40
2022-11-22T03:43:13.409Z,85.30
2022-11-22T03:44:13.335Z,85.00
2022-11-22T03:45:13.262Z,85.00
2022-11-22T03:46:13.552Z,84.70
2022-11-22T03:47:13.484Z,85.20
2022-11-22T03:48:13.305Z,85.20
2022-11-22T03:49:13.193Z,85.50
2022-11-22T03:50:12.991Z,85.60
2022-11-22T03:51:12.853Z,85.30
2022-11-22T03:52:13.907Z,85.50
2022-11-22T03:53:13.201Z,85.40
2022-11-22T03:54:13.103Z,85.10
2022-11-22T03:55:13.093Z,85.00
2022-11-22T03:56:13.436Z,85.30
2022-11-22T03:57:13.778Z,85.10
2022-11-22T03:58:13.941Z,84.70
2022-11-22T03:59:12.985Z,85.10
2022-11-22T04:00:13.374Z,85.10
2022-11-22T04:01:16.764Z,84.80
2022-11-22T04:02:12.989Z,84.60
2022-11-22T04:03:12.982Z,84.30
2022-11-22T04:04:13.082Z,84.40
2022-11-22T04:05:13.027Z,85.10
2022-11-22T04:06:13.074Z,85.00
2022-11-22T04:07:13.205Z,84.50
2022-11-22T04:08:13.650Z,84.90
2022-11-22T04:09:13.597Z,85.00
2022-11-22T04:10:16.351Z,84.80
2022-11-22T04:11:12.952Z,84.70
2022-11-22T04:12:12.850Z,84.40
2022-11-22T04:13:13.756Z,84.50
2022-11-22T04:14:13.675Z,84.70
2022-11-22T04:15:13.575Z,85.00
2022-11-22T04:16:13.404Z,85.40
2022-11-22T04:17:13.509Z,85.20
2022-11-22T04:18:13.568Z,85.20
2022-11-22T04:19:13.528Z,85.10
2022-11-22T04:20:13.461Z,85.30
2022-11-22T04:21:13.622Z,84.40
2022-11-22T04:22:13.768Z,85.00
2022-11-22T04:23:13.953Z,85.50
2022-11-22T04:24:12.923Z,85.60
2022-11-22T04:25:12.779Z,85.20
2022-11-22T04:26:13.830Z,85.30
2022-11-22T04:27:13.649Z,85.10
2022-11-22T04:28:13.553Z,85.40
2022-11-22T04:29:13.606Z,85.30
2022-11-22T04:30:18.957Z,85.60
2022-11-22T04:31:13.390Z,85.60
2022-11-22T04:32:13.220Z,85.30
2022-11-22T04:33:13.189Z,85.10
2022-11-22T04:34:13.095Z,85.50
2022-11-22T04:35:13.027Z,85.50
2022-11-22T04:36:17.876Z,85.30
2022-11-22T04:37:13.826Z,85.10
2022-11-22T04:38:13.768Z,85.10
2022-11-22T04:39:13.694Z,85.60
2022-11-22T04:40:13.850Z,85.40
2022-11-22T04:41:14.071Z,85.40
2022-11-22T04:42:12.974Z,85.00
2022-11-22T04:43:13.152Z,85.10
2022-11-22T04:44:13.086Z,85.90
2022-11-22T04:45:13.407Z,85.80
2022-11-22T04:46:13.285Z,85.00
2022-11-22T04:47:13.299Z,85.60
2022-11-22T04:48:13.287Z,85.30
2022-11-22T04:49:14.455Z,84.60
2022-11-22T04:50:13.555Z,85.10
2022-11-22T04:51:13.616Z,85.50
2022-11-22T04:52:13.573Z,85.60
2022-11-22T04:53:13.593Z,85.90
2022-11-22T04:54:13.821Z,85.90
2022-11-22T04:55:13.849Z,85.80
2022-11-22T04:56:15.099Z,85.90
2022-11-22T04:57:13.227Z,85.70
2022-11-22T04:58:13.343Z,85.40
2022-11-22T04:59:13.649Z,84.70
2022-11-22T05:00:13.589Z,84.50
2022-11-22T05:01:13.614Z,84.40
2022-11-22T05:02:13.867Z,85.30
2022-11-22T05:03:13.757Z,85.30
2022-11-22T05:04:13.878Z,85.40
2022-11-22T05:05:14.005Z,85.10
2022-11-22T05:06:12.897Z,85.10
2022-11-22T05:07:13.070Z,85.00
2022-11-22T05:08:13.533Z,85.50
2022-11-22T05:09:13.489Z,84.70
2022-11-22T05:10:13.376Z,85.10
2022-11-22T05:11:13.288Z,85.80
2022-11-22T05:12:13.207Z,85.70
2022-11-22T05:13:13.425Z,85.50
2022-11-22T05:14:13.768Z,85.40
2022-11-22T05:15:14.069Z,85.20
2022-11-22T05:16:13.058Z,85.10
2022-11-22T05:17:13.728Z,84.50
2022-11-22T05:18:13.224Z,85.50
2022-11-22T05:19:13.421Z,85.80
2022-11-22T05:20:13.626Z,85.90
2022-11-22T05:21:13.515Z,85.70
2022-11-22T05:22:13.506Z,85.40
2022-11-22T05:23:13.598Z,85.50
2022-11-22T05:24:13.458Z,85.80
2022-11-22T05:25:13.500Z,85.80
2022-11-22T05:26:13.387Z,86.10
2022-11-22T05:27:13.329Z,85.90
2022-11-22T05:28:13.210Z,85.50
2022-11-22T05:29:13.339Z,85.10
2022-11-22T05:30:28.280Z,85.80
2022-11-22T05:31:13.284Z,86.00
2022-11-22T05:32:13.252Z,85.80
2022-11-22T05:33:13.408Z,86.40
2022-11-22T05:34:13.407Z,86.70
2022-11-22T05:35:13.412Z,86.50
2022-11-22T05:36:13.265Z,86.60
2022-11-22T05:37:13.264Z,86.60
2022-11-22T05:38:13.420Z,86.60
2022-11-22T05:39:13.427Z,86.70
2022-11-22T05:40:13.439Z,86.50
2022-11-22T05:41:33.738Z,86.40
2022-11-22T05:42:13.979Z,86.10
2022-11-22T05:43:12.906Z,85.90
2022-11-22T05:44:13.023Z,85.90
2022-11-22T05:45:12.972Z,86.30
2022-11-22T05:46:13.032Z,86.10
2022-11-22T05:47:12.989Z,86.10
2022-11-22T05:48:12.996Z,86.40
2022-11-22T05:49:12.960Z,86.00
2022-11-22T05:50:12.776Z,86.20
2022-11-22T05:51:14.325Z,86.90
2022-11-22T05:52:13.340Z,87.20
2022-11-22T05:53:13.680Z,87.20
2022-11-22T05:54:13.479Z,86.80
2022-11-22T05:55:13.514Z,87.00
2022-11-22T05:56:13.703Z,86.50
2022-11-22T05:57:13.607Z,85.80
2022-11-22T05:58:13.689Z,86.20
2022-11-22T05:59:13.949Z,86.30
2022-11-22T06:00:13.130Z,86.00
2022-11-22T06:01:13.414Z,86.00
2022-11-22T06:02:13.762Z,86.00
2022-11-22T06:03:14.163Z,87.00
2022-11-22T06:04:13.343Z,87.30
2022-11-22T06:05:13.274Z,86.80
2022-11-22T06:06:13.319Z,86.10
2022-11-22T06:07:13.559Z,86.60
2022-11-22T06:08:13.685Z,86.50
2022-11-22T06:09:13.692Z,85.80
2022-11-22T06:10:13.593Z,86.20
2022-11-22T06:11:13.479Z,86.10
2022-11-22T06:12:13.566Z,85.90
2022-11-22T06:13:13.377Z,86.00
2022-11-22T06:14:13.315Z,86.00
2022-11-22T06:15:13.405Z,85.80
2022-11-22T06:16:13.677Z,85.40
2022-11-22T06:17:14.055Z,85.50
2022-11-22T06:18:12.965Z,85.40
2022-11-22T06:19:12.906Z,85.20
2022-11-22T06:20:12.779Z,85.00
2022-11-22T06:21:14.054Z,85.10
2022-11-22T06:22:13.086Z,84.50
2022-11-22T06:23:13.373Z,84.70
2022-11-22T06:24:13.547Z,85.00
2022-11-22T06:25:13.724Z,84.50
2022-11-22T06:26:14.076Z,84.20
2022-11-22T06:27:13.406Z,84.00
2022-11-22T06:28:13.250Z,84.00
2022-11-22T06:29:13.193Z,83.50
2022-11-22T06:30:23.263Z,83.80
2022-11-22T06:31:13.413Z,84.10
2022-11-22T06:32:13.351Z,84.40
2022-11-22T06:33:13.282Z,84.00
2022-11-22T06:34:13.285Z,84.20
2022-11-22T06:35:13.119Z,84.20
2022-11-22T06:36:13.472Z,84.70
2022-11-22T06:37:13.804Z,84.80
2022-11-22T06:38:13.719Z,84.50
2022-11-22T06:39:13.724Z,83.80
2022-11-22T06:40:13.566Z,83.90
2022-11-22T06:41:13.507Z,83.70
2022-11-22T06:42:13.519Z,83.60
2022-11-22T06:43:13.367Z,83.60
2022-11-22T06:44:13.445Z,83.70
2022-11-22T06:45:13.451Z,83.70
2022-11-22T06:46:13.860Z,83.80
2022-11-22T06:47:14.193Z,83.60
2022-11-22T06:48:13.034Z,82.80
2022-11-22T06:49:12.974Z,83.30
2022-11-22T06:50:16.264Z,83.60
2022-11-22T06:51:13.498Z,83.60
2022-11-22T06:52:13.818Z,82.90
2022-11-22T06:53:39.422Z,82.40
2022-11-22T06:54:13.067Z,82.70
2022-11-22T06:55:42.278Z,82.50
2022-11-22T06:56:13.285Z,82.70
2022-11-22T06:57:13.163Z,83.10
2022-11-22T06:58:13.116Z,82.70
2022-11-22T06:59:13.152Z,82.30
2022-11-22T07:00:13.109Z,82.10
2022-11-22T07:01:13.337Z,82.30
2022-11-22T07:02:13.196Z,82.40
2022-11-22T07:03:13.146Z,82.60
2022-11-22T07:04:13.317Z,82.70
2022-11-22T07:05:25.487Z,82.40
2022-11-22T07:06:13.095Z,82.00
2022-11-22T07:07:13.265Z,82.20
2022-11-22T07:08:14.166Z,82.10
2022-11-22T07:09:13.484Z,81.50
2022-11-22T07:10:13.480Z,81.20
2022-11-22T07:11:13.786Z,81.40
2022-11-22T07:12:13.956Z,81.50
2022-11-22T07:13:12.926Z,81.20
2022-11-22T07:14:12.920Z,81.10
2022-11-22T07:15:12.839Z,80.90
2022-11-22T07:16:13.813Z,80.40
2022-11-22T07:17:13.903Z,80.10
2022-11-22T07:18:12.822Z,80.10
2022-11-22T07:19:13.753Z,80.10
2022-11-22T07:20:14.046Z,80.20
2022-11-22T07:21:13.792Z,80.30
2022-11-22T07:22:12.935Z,79.50
2022-11-22T07:23:12.959Z,79.20
2022-11-22T07:24:12.890Z,78.80
2022-11-22T07:25:14.117Z,79.40
2022-11-22T07:26:13.294Z,78.70
2022-11-22T07:27:13.397Z,78.50
2022-11-22T07:28:13.517Z,78.40
2022-11-22T07:29:13.332Z,78.10
2022-11-22T07:30:13.290Z,78.00
2022-11-22T07:31:13.291Z,78.70
2022-11-22T07:32:13.181Z,78.20
2022-11-22T07:33:13.101Z,78.10
2022-11-22T07:34:13.120Z,77.70
2022-11-22T07:35:13.105Z,77.20
2022-11-22T07:36:13.248Z,77.40
2022-11-22T07:37:14.091Z,76.70
2022-11-22T07:38:13.352Z,77.10
2022-11-22T07:39:13.156Z,77.20
2022-11-22T07:40:13.214Z,77.30
2022-11-22T07:41:13.372Z,76.90
2022-11-22T07:42:13.361Z,77.00
2022-11-22T07:43:13.401Z,76.90
2022-11-22T07:44:13.338Z,76.80
2022-11-22T07:45:13.276Z,76.90
2022-11-22T07:46:13.488Z,76.90
2022-11-22T07:47:15.254Z,77.00
2022-11-22T07:48:13.335Z,76.90
2022-11-22T07:49:13.452Z,76.30
2022-11-22T07:50:13.716Z,76.20
2022-11-22T07:51:13.657Z,76.60
2022-11-22T07:52:13.569Z,76.50
2022-11-22T07:53:13.435Z,76.70
2022-11-22T07:54:13.235Z,76.10
2022-11-22T07:55:14.452Z,75.60
2022-11-22T07:56:13.776Z,75.90
2022-11-22T07:57:13.597Z,75.80
2022-11-22T07:58:13.581Z,75.50
2022-11-22T07:59:13.670Z,75.20
2022-11-22T08:00:13.594Z,75.00
2022-11-22T08:01:13.596Z,75.40
2022-11-22T08:02:13.917Z,75.10
2022-11-22T08:03:17.621Z,75.20
2022-11-22T08:04:13.067Z,75.20
2022-11-22T08:05:13.199Z,75.40
2022-11-22T08:06:13.399Z,75.40
2022-11-22T08:07:13.642Z,75.50
2022-11-22T08:08:13.702Z,75.40
2022-11-22T08:09:13.572Z,75.60
2022-11-22T08:10:13.637Z,75.50
2022-11-22T08:11:13.560Z,75.70
2022-11-22T08:12:13.602Z,75.60
2022-11-22T08:13:13.553Z,75.40
2022-11-22T08:15:13.221Z,75.20
2022-11-22T08:16:13.839Z,75.50
2022-11-22T08:17:13.892Z,75.50
2022-11-22T08:18:13.180Z,75.30
2022-11-22T08:19:13.789Z,75.10
2022-11-22T08:20:13.786Z,75.30
2022-11-22T08:21:14.142Z,74.90
2022-11-22T08:22:13.185Z,74.90
2022-11-22T08:23:13.281Z,75.00
2022-11-22T08:24:13.212Z,75.10
2022-11-22T08:25:13.136Z,75.30
2022-11-22T08:26:13.136Z,75.10
2022-11-22T08:27:13.241Z,75.00
2022-11-22T08:28:13.143Z,74.90
2022-11-22T08:29:14.469Z,75.10
2022-11-22T08:30:13.663Z,75.10
2022-11-22T08:31:13.609Z,74.90
2022-11-22T08:32:13.441Z,74.60
2022-11-22T08:33:13.372Z,74.30
2022-11-22T08:34:13.939Z,73.90
2022-11-22T08:35:12.815Z,73.80
2022-11-22T08:36:13.799Z,74.00
2022-11-22T08:37:13.922Z,73.60
2022-11-22T08:38:12.869Z,73.60
2022-11-22T08:39:14.131Z,73.60
2022-11-22T08:40:18.559Z,74.20
2022-11-22T08:41:13.844Z,73.90
2022-11-22T08:42:13.805Z,73.90
2022-11-22T08:43:14.091Z,73.30
2022-11-22T08:44:13.153Z,73.30
2022-11-22T08:45:12.977Z,73.10
2022-11-22T08:46:12.844Z,72.60
2022-11-22T08:47:14.090Z,72.60
2022-11-22T08:48:16.435Z,72.50
2022-11-22T08:49:13.577Z,72.80
2022-11-22T08:50:14.025Z,72.70
2022-11-22T08:51:13.377Z,72.80
2022-11-22T08:52:13.589Z,72.20
2022-11-22T08:53:13.799Z,72.00
2022-11-22T08:54:13.762Z,71.90
2022-11-22T08:55:13.675Z,71.80
2022-11-22T08:56:13.574Z,71.00
2022-11-22T08:57:13.900Z,71.30
2022-11-22T08:58:13.015Z,71.10
2022-11-22T08:59:13.063Z,71.00
2022-11-22T09:00:13.232Z,71.40
2022-11-22T09:01:13.327Z,71.30
2022-11-22T09:02:13.428Z,71.00
2022-11-22T09:03:13.437Z,70.70
2022-11-22T09:04:13.634Z,70.70
2022-11-22T09:05:14.027Z,70.20
2022-11-22T09:08:26.612Z,69.90
2022-11-22T09:09:36.990Z,70.00
2022-11-22T09:10:12.943Z,69.80
2022-11-22T09:11:12.833Z,69.50
2022-11-22T09:12:13.837Z,69.40
2022-11-22T09:13:13.730Z,69.20
2022-11-22T09:14:13.950Z,69.30
2022-11-22T09:15:12.903Z,69.10
2022-11-22T09:16:13.088Z,68.90
2022-11-22T09:17:17.559Z,68.50
2022-11-22T09:18:13.375Z,68.50
2022-11-22T09:19:13.349Z,68.10
2022-11-22T09:20:13.352Z,67.90
2022-11-22T09:21:13.261Z,68.50
2022-11-22T09:22:13.214Z,68.00
2022-11-22T09:23:13.120Z,68.30
2022-11-22T09:24:13.410Z,67.30
2022-11-22T09:25:13.741Z,67.40
2022-11-22T09:26:13.689Z,67.30
2022-11-22T09:27:13.613Z,66.80
2022-11-22T09:28:13.854Z,66.80
2022-11-22T09:29:13.728Z,66.30
2022-11-22T09:30:13.670Z,66.20
2022-11-22T09:31:13.551Z,65.50
2022-11-22T09:32:13.623Z,64.10
2022-11-22T09:33:13.766Z,62.10
2022-11-22T09:34:13.827Z,60.50
2022-11-22T09:35:13.719Z,60.30
2022-11-22T09:36:14.089Z,59.20
2022-11-22T09:37:13.291Z,59.10
2022-11-22T09:38:13.226Z,57.30
2022-11-22T09:39:13.520Z,56.40
2022-11-22T09:40:13.450Z,57.20
2022-11-22T09:41:13.689Z,56.70
2022-11-22T09:42:13.787Z,56.70
2022-11-22T09:43:14.142Z,56.20
2022-11-22T09:44:13.451Z,55.90
2022-11-22T09:45:13.331Z,55.00
2022-11-22T09:46:13.500Z,56.00
2022-11-22T09:47:14.583Z,56.50
2022-11-22T09:48:13.721Z,57.80
2022-11-22T09:49:13.672Z,58.20
2022-11-22T09:50:13.654Z,57.30
2022-11-22T09:51:13.674Z,56.50
2022-11-22T09:52:13.868Z,58.00
2022-11-22T09:53:13.764Z,56.20
2022-11-22T09:54:13.671Z,56.50
2022-11-22T09:55:13.587Z,56.30
2022-11-22T09:56:13.501Z,58.30
2022-11-22T09:57:13.584Z,58.50
2022-11-22T09:58:13.431Z,57.60
2022-11-22T09:59:13.515Z,56.50
2022-11-22T10:00:13.738Z,58.60
2022-11-22T10:01:13.648Z,58.30
2022-11-22T10:02:18.580Z,57.20
2022-11-22T10:03:13.464Z,55.30
2022-11-22T10:04:13.472Z,54.50
2022-11-22T10:05:13.384Z,57.70
2022-11-22T10:06:13.247Z,60.80
2022-11-22T10:07:13.688Z,62.30
2022-11-22T10:08:13.745Z,63.00
2022-11-22T10:09:13.997Z,62.60
2022-11-22T10:10:13.069Z,61.10
2022-11-22T10:11:13.293Z,61.00
2022-11-22T10:12:13.388Z,63.00
2022-11-22T10:13:13.664Z,64.10
2022-11-22T10:14:14.024Z,64.10
2022-11-22T10:15:13.013Z,63.30
2022-11-22T10:16:13.208Z,61.70
2022-11-22T10:17:13.312Z,60.00
2022-11-22T10:18:13.445Z,57.10
2022-11-22T10:19:13.913Z,57.00
2022-11-22T10:20:13.013Z,61.30
2022-11-22T10:21:12.914Z,61.50
2022-11-22T10:22:12.857Z,61.80
2022-11-22T10:23:13.795Z,58.30
2022-11-22T10:24:13.865Z,57.00
2022-11-22T10:25:13.714Z,55.60
2022-11-22T10:26:13.754Z,55.20
2022-11-22T10:27:13.571Z,57.80
2022-11-22T10:28:13.453Z,60.60
2022-11-22T10:29:33.426Z,61.30
2022-11-22T10:30:13.332Z,60.40
2022-11-22T10:32:19.090Z,60.60
2022-11-22T10:33:38.824Z,56.70
2022-11-22T10:34:13.482Z,55.60
2022-11-22T10:35:13.488Z,56.70
2022-11-22T10:36:13.313Z,56.30
2022-11-22T10:37:13.262Z,58.50
2022-11-22T10:38:13.643Z,61.50
2022-11-22T10:39:13.493Z,61.70
2022-11-22T10:40:13.419Z,61.90
2022-11-22T10:41:13.320Z,63.00
2022-11-22T10:42:13.331Z,63.20
2022-11-22T10:43:13.262Z,64.10
2022-11-22T10:44:13.466Z,64.60
2022-11-22T10:45:13.350Z,64.80
2022-11-22T10:46:13.520Z,64.50
2022-11-22T10:47:13.712Z,65.40
2022-11-22T10:48:13.967Z,64.90
2022-11-22T10:49:12.896Z,65.10
2022-11-22T10:50:13.938Z,64.90
2022-11-22T10:51:12.862Z,64.70
2022-11-22T10:52:13.901Z,65.50
2022-11-22T10:53:12.832Z,66.10
2022-11-22T10:54:13.889Z,65.90
2022-11-22T10:55:13.898Z,66.60
2022-11-22T10:56:12.805Z,66.10
2022-11-22T10:57:13.903Z,66.20
2022-11-22T10:58:13.020Z,66.70
2022-11-22T10:59:13.063Z,66.20
2022-11-22T11:00:13.267Z,66.20
2022-11-22T11:01:13.237Z,66.40
2022-11-22T11:02:13.152Z,66.40
2022-11-22T11:03:13.140Z,66.00
2022-11-22T11:04:14.200Z,66.80
2022-11-22T11:05:18.265Z,66.50
2022-11-22T11:06:38.090Z,66.00
2022-11-22T11:07:13.602Z,66.40
2022-11-22T11:08:38.963Z,66.10
2022-11-22T11:10:21.606Z,65.00
2022-11-22T11:11:13.993Z,65.10
2022-11-22T11:12:13.054Z,65.20
2022-11-22T11:13:13.194Z,62.50
2022-11-22T11:14:13.137Z,60.00
2022-11-22T11:15:13.044Z,59.10
2022-11-22T11:16:13.379Z,58.00
2022-11-22T11:17:13.581Z,54.10
2022-11-22T11:18:13.538Z,54.20
2022-11-22T11:19:25.322Z,54.70
2022-11-22T11:20:13.459Z,58.00
2022-11-22T11:21:13.481Z,59.30
2022-11-22T11:22:13.823Z,58.80
2022-11-22T11:23:22.247Z,59.30
2022-11-22T11:24:13.269Z,59.90
2022-11-22T11:25:18.772Z,61.10
2022-11-22T11:26:13.845Z,62.20
2022-11-22T11:27:14.053Z,61.70
2022-11-22T11:28:13.550Z,62.00
2022-11-22T11:29:13.547Z,61.80
2022-11-22T11:30:13.756Z,61.60
2022-11-22T11:31:13.967Z,62.00
2022-11-22T11:32:13.079Z,62.70
2022-11-22T11:33:13.254Z,63.10
2022-11-22T11:34:13.585Z,62.40
2022-11-22T11:35:14.242Z,62.00
2022-11-22T11:36:13.753Z,62.00
2022-11-22T11:37:14.232Z,62.10
2022-11-22T11:38:13.842Z,62.20
2022-11-22T11:39:14.067Z,61.60
2022-11-22T11:40:13.372Z,62.20
2022-11-22T11:41:13.549Z,62.40
2022-11-22T11:42:13.673Z,63.00
2022-11-22T11:43:13.740Z,62.20
2022-11-22T11:44:14.155Z,62.60
2022-11-22T11:45:36.075Z,63.10
2022-11-22T11:46:13.634Z,62.40
2022-11-22T11:47:13.725Z,58.20
2022-11-22T11:48:14.084Z,59.40
2022-11-22T11:49:13.209Z,59.20
2022-11-22T11:50:53.597Z,61.90
2022-11-22T11:51:13.931Z,61.60
2022-11-22T11:52:13.040Z,61.40
2022-11-22T11:53:13.444Z,62.40
2022-11-22T11:54:41.354Z,63.00
2022-11-22T11:55:13.815Z,63.30
2022-11-22T11:56:14.211Z,63.00
2022-11-22T11:57:18.424Z,63.30
2022-11-22T11:58:16.280Z,62.20
2022-11-22T11:59:14.244Z,62.70
2022-11-22T12:00:13.432Z,61.80
2022-11-22T12:01:13.296Z,60.70
2022-11-22T12:02:13.536Z,62.20
2022-11-22T12:03:13.519Z,62.30
2022-11-22T12:05:13.102Z,59.70
2022-11-22T12:06:13.056Z,60.50
2022-11-22T12:07:26.152Z,60.60
2022-11-22T12:08:18.256Z,62.40
2022-11-22T12:09:27.049Z,62.00
2022-11-22T12:10:13.603Z,62.30
2022-11-22T12:11:19.005Z,61.90
2022-11-22T12:12:13.737Z,61.60
2022-11-22T12:13:13.839Z,61.70
2022-11-22T12:14:20.296Z,61.50
2022-11-22T12:15:19.002Z,61.20
2022-11-22T12:16:14.565Z,60.50
2022-11-22T12:17:18.875Z,60.50
2022-11-22T12:18:19.106Z,60.80
2022-11-22T12:19:23.184Z,60.70
2022-11-22T12:20:14.156Z,61.80
2022-11-22T12:21:13.433Z,60.90
2022-11-22T12:22:24.232Z,60.90
2022-11-22T12:23:13.696Z,61.70
2022-11-22T12:24:41.300Z,61.10
2022-11-22T12:25:31.419Z,60.50
2022-11-22T12:26:13.799Z,59.60
2022-11-22T12:27:51.858Z,60.90
2022-11-22T12:28:13.570Z,60.70
2022-11-22T12:29:13.665Z,59.80
2022-11-22T12:30:39.255Z,56.80
2022-11-22T12:31:15.520Z,57.60
2022-11-22T12:32:14.196Z,57.40
2022-11-22T12:33:13.287Z,58.10
2022-11-22T12:34:13.541Z,57.70
2022-11-22T12:35:13.633Z,56.70
2022-11-22T12:36:13.755Z,55.40
2022-11-22T12:37:18.129Z,55.20
2022-11-22T12:38:13.049Z,55.50
2022-11-22T12:39:13.389Z,54.80
2022-11-22T12:40:25.194Z,54.40
2022-11-22T12:41:13.062Z,55.40
2022-11-22T12:43:13.953Z,55.00
2022-11-22T12:44:13.008Z,55.70
2022-11-22T12:45:13.105Z,54.70
2022-11-22T12:46:13.497Z,54.70
2022-11-22T12:47:13.420Z,56.20
2022-11-22T12:48:13.759Z,55.50
2022-11-22T12:50:00.033Z,54.30
2022-11-22T12:50:16.071Z,55.50
2022-11-22T12:51:13.454Z,54.90
2022-11-22T12:52:13.552Z,55.00
2022-11-22T12:53:13.676Z,54.90
2022-11-22T12:54:13.742Z,56.40
2022-11-22T12:56:13.819Z,58.60
2022-11-22T12:57:13.874Z,59.10
2022-11-22T12:58:13.842Z,59.70
2022-11-22T12:59:13.793Z,59.90
2022-11-22T13:00:18.795Z,60.30